sensor_id;sensor_type;location;lat;lon;timestamp;P1;durP1;ratioP1;P2;durP2;ratioP2
37067;SDS011;22982;42.848;25.468;2022-09-20T00:04:41;1.27;;;1.15;;
37067;SDS011;22982;42.848;25.468;2022-09-20T00:09:43;1.85;;;1.20;;
37067;SDS011;22982;42.848;25.468;2022-09-20T00:14:46;2.35;;;1.10;;
37067;SDS011;22982;42.848;25.468;2022-09-20T00:19:48;1.50;;;1.10;;
37067;SDS011;22982;42.848;25.468;2022-09-20T00:24:50;3.60;;;1.10;;
37067;SDS011;22982;42.848;25.468;2022-09-20T00:29:52;1.77;;;1.23;;
37067;SDS011;22982;42.848;25.468;2022-09-20T00:34:54;1.60;;;1.20;;
37067;SDS011;22982;42.848;25.468;2022-09-20T00:40:13;2.97;;;1.15;;
37067;SDS011;22982;42.848;25.468;2022-09-20T00:55:32;3.95;;;1.10;;
37067;SDS011;22982;42.848;25.468;2022-09-20T01:00:38;1.10;;;1.00;;
37067;SDS011;22982;42.848;25.468;2022-09-20T01:05:41;3.33;;;1.27;;
37067;SDS011;22982;42.848;25.468;2022-09-20T01:10:45;2.42;;;1.13;;
37067;SDS011;22982;42.848;25.468;2022-09-20T01:15:48;4.18;;;1.38;;
37067;SDS011;22982;42.848;25.468;2022-09-20T01:20:52;1.23;;;0.90;;
37067;SDS011;22982;42.848;25.468;2022-09-20T01:26:00;2.58;;;1.05;;
37067;SDS011;22982;42.848;25.468;2022-09-20T01:31:19;1.27;;;1.00;;
37067;SDS011;22982;42.848;25.468;2022-09-20T01:41:47;0.70;;;0.70;;
37067;SDS011;22982;42.848;25.468;2022-09-20T02:03:19;2.20;;;1.50;;
37067;SDS011;22982;42.848;25.468;2022-09-20T02:08:33;2.30;;;1.38;;
37067;SDS011;22982;42.848;25.468;2022-09-20T02:25:07;1.95;;;1.45;;
37067;SDS011;22982;42.848;25.468;2022-09-20T02:36:20;1.60;;;1.50;;
37067;SDS011;22982;42.848;25.468;2022-09-20T02:51:54;1.90;;;1.70;;
37067;SDS011;22982;42.848;25.468;2022-09-20T03:07:33;2.22;;;2.00;;
37067;SDS011;22982;42.848;25.468;2022-09-20T03:18:11;2.25;;;1.80;;
37067;SDS011;22982;42.848;25.468;2022-09-20T03:29:06;1.90;;;1.80;;
37067;SDS011;22982;42.848;25.468;2022-09-20T03:34:31;2.10;;;1.90;;
37067;SDS011;22982;42.848;25.468;2022-09-20T04:21:57;7.60;;;3.80;;
37067;SDS011;22982;42.848;25.468;2022-09-20T04:37:29;21.27;;;7.90;;
37067;SDS011;22982;42.848;25.468;2022-09-20T05:00:02;10.82;;;5.85;;
37067;SDS011;22982;42.848;25.468;2022-09-20T05:21:12;2.15;;;1.88;;
37067;SDS011;22982;42.848;25.468;2022-09-20T05:31:48;1.92;;;1.63;;
37067;SDS011;22982;42.848;25.468;2022-09-20T06:20:02;2.78;;;1.33;;
37067;SDS011;22982;42.848;25.468;2022-09-20T06:30:52;1.27;;;1.17;;
37067;SDS011;22982;42.848;25.468;2022-09-20T06:41:24;1.30;;;1.20;;
37067;SDS011;22982;42.848;25.468;2022-09-20T06:46:36;1.30;;;1.20;;
37067;SDS011;22982;42.848;25.468;2022-09-20T06:51:40;1.20;;;1.10;;
37067;SDS011;22982;42.848;25.468;2022-09-20T06:56:43;1.42;;;1.23;;
37067;SDS011;22982;42.848;25.468;2022-09-20T07:01:47;1.20;;;1.10;;
37067;SDS011;22982;42.848;25.468;2022-09-20T07:06:50;0.90;;;0.90;;
37067;SDS011;22982;42.848;25.468;2022-09-20T07:11:52;1.42;;;1.00;;
37067;SDS011;22982;42.848;25.468;2022-09-20T07:16:56;0.82;;;0.82;;
37067;SDS011;22982;42.848;25.468;2022-09-20T07:21:59;1.05;;;1.00;;
37067;SDS011;22982;42.848;25.468;2022-09-20T07:27:01;0.70;;;0.70;;
37067;SDS011;22982;42.848;25.468;2022-09-20T07:32:06;0.77;;;0.77;;
37067;SDS011;22982;42.848;25.468;2022-09-20T07:37:08;0.90;;;0.90;;
37067;SDS011;22982;42.848;25.468;2022-09-20T07:42:11;3.13;;;0.70;;
37067;SDS011;22982;42.848;25.468;2022-09-20T07:53:35;1.02;;;0.75;;
37067;SDS011;22982;42.848;25.468;2022-09-20T07:58:39;1.00;;;0.85;;
37067;SDS011;22982;42.848;25.468;2022-09-20T08:03:42;1.83;;;0.65;;
37067;SDS011;22982;42.848;25.468;2022-09-20T08:08:45;0.60;;;0.60;;
37067;SDS011;22982;42.848;25.468;2022-09-20T08:13:48;2.35;;;0.80;;
37067;SDS011;22982;42.848;25.468;2022-09-20T08:19:13;0.82;;;0.82;;
37067;SDS011;22982;42.848;25.468;2022-09-20T08:24:19;1.92;;;0.70;;
37067;SDS011;22982;42.848;25.468;2022-09-20T08:29:22;4.60;;;1.50;;
37067;SDS011;22982;42.848;25.468;2022-09-20T08:34:24;1.20;;;1.05;;
37067;SDS011;22982;42.848;25.468;2022-09-20T08:39:26;1.13;;;0.70;;
37067;SDS011;22982;42.848;25.468;2022-09-20T08:44:50;0.50;;;0.50;;
37067;SDS011;22982;42.848;25.468;2022-09-20T08:50:00;0.50;;;0.50;;
37067;SDS011;22982;42.848;25.468;2022-09-20T08:55:16;3.90;;;2.83;;
37067;SDS011;22982;42.848;25.468;2022-09-20T09:00:22;1.25;;;1.15;;
37067;SDS011;22982;42.848;25.468;2022-09-20T09:10:45;1.88;;;1.17;;
37067;SDS011;22982;42.848;25.468;2022-09-20T09:15:56;1.33;;;0.77;;
37067;SDS011;22982;42.848;25.468;2022-09-20T09:21:07;1.98;;;0.73;;
37067;SDS011;22982;42.848;25.468;2022-09-20T09:26:21;2.22;;;0.90;;
37067;SDS011;22982;42.848;25.468;2022-09-20T09:31:25;1.05;;;0.95;;
37067;SDS011;22982;42.848;25.468;2022-09-20T09:36:27;1.02;;;0.95;;
37067;SDS011;22982;42.848;25.468;2022-09-20T09:41:30;0.90;;;0.90;;
37067;SDS011;22982;42.848;25.468;2022-09-20T09:46:37;0.82;;;0.82;;
37067;SDS011;22982;42.848;25.468;2022-09-20T09:51:41;0.70;;;0.63;;
37067;SDS011;22982;42.848;25.468;2022-09-20T10:07:53;0.40;;;0.40;;
37067;SDS011;22982;42.848;25.468;2022-09-20T10:18:22;0.60;;;0.60;;
37067;SDS011;22982;42.848;25.468;2022-09-20T10:23:56;0.35;;;0.35;;
37067;SDS011;22982;42.848;25.468;2022-09-20T10:29:10;0.93;;;0.63;;
37067;SDS011;22982;42.848;25.468;2022-09-20T10:34:31;0.47;;;0.47;;
37067;SDS011;22982;42.848;25.468;2022-09-20T10:39:45;0.43;;;0.43;;
37067;SDS011;22982;42.848;25.468;2022-09-20T11:12:10;2.05;;;0.40;;
37067;SDS011;22982;42.848;25.468;2022-09-20T11:22:23;0.60;;;0.50;;
37067;SDS011;22982;42.848;25.468;2022-09-20T11:43:33;0.85;;;0.50;;
37067;SDS011;22982;42.848;25.468;2022-09-20T11:48:42;0.43;;;0.43;;
37067;SDS011;22982;42.848;25.468;2022-09-20T11:53:58;0.70;;;0.70;;
37067;SDS011;22982;42.848;25.468;2022-09-20T11:59:06;0.47;;;0.47;;
37067;SDS011;22982;42.848;25.468;2022-09-20T12:04:44;0.55;;;0.55;;
37067;SDS011;22982;42.848;25.468;2022-09-20T12:09:51;0.60;;;0.52;;
37067;SDS011;22982;42.848;25.468;2022-09-20T12:14:58;0.60;;;0.60;;
37067;SDS011;22982;42.848;25.468;2022-09-20T12:20:50;0.43;;;0.43;;
37067;SDS011;22982;42.848;25.468;2022-09-20T12:25:39;0.82;;;0.60;;
37067;SDS011;22982;42.848;25.468;2022-09-20T12:30:41;2.47;;;0.40;;
37067;SDS011;22982;42.848;25.468;2022-09-20T12:35:51;0.40;;;0.40;;
37067;SDS011;22982;42.848;25.468;2022-09-20T12:46:31;1.85;;;0.52;;
37067;SDS011;22982;42.848;25.468;2022-09-20T12:51:37;0.82;;;0.60;;
37067;SDS011;22982;42.848;25.468;2022-09-20T12:57:13;1.00;;;0.80;;
37067;SDS011;22982;42.848;25.468;2022-09-20T13:07:55;3.67;;;0.80;;
37067;SDS011;22982;42.848;25.468;2022-09-20T13:13:09;4.63;;;1.00;;
37067;SDS011;22982;42.848;25.468;2022-09-20T13:18:16;0.50;;;0.50;;
37067;SDS011;22982;42.848;25.468;2022-09-20T13:23:26;2.42;;;0.85;;
37067;SDS011;22982;42.848;25.468;2022-09-20T13:28:38;0.50;;;0.50;;
37067;SDS011;22982;42.848;25.468;2022-09-20T13:33:48;0.40;;;0.30;;
37067;SDS011;22982;42.848;25.468;2022-09-20T13:38:51;0.98;;;0.50;;
37067;SDS011;22982;42.848;25.468;2022-09-20T13:43:55;1.35;;;0.73;;
37067;SDS011;22982;42.848;25.468;2022-09-20T13:54:26;0.70;;;0.70;;
37067;SDS011;22982;42.848;25.468;2022-09-20T13:59:34;2.17;;;0.60;;
37067;SDS011;22982;42.848;25.468;2022-09-20T14:04:42;0.50;;;0.50;;
37067;SDS011;22982;42.848;25.468;2022-09-20T14:09:45;0.70;;;0.70;;
37067;SDS011;22982;42.848;25.468;2022-09-20T14:14:47;2.28;;;1.95;;
37067;SDS011;22982;42.848;25.468;2022-09-20T14:19:52;1.75;;;1.08;;
37067;SDS011;22982;42.848;25.468;2022-09-20T14:24:57;9.18;;;3.35;;
37067;SDS011;22982;42.848;25.468;2022-09-20T14:30:27;1.85;;;0.40;;
37067;SDS011;22982;42.848;25.468;2022-09-20T14:35:31;3.45;;;1.40;;
37067;SDS011;22982;42.848;25.468;2022-09-20T14:40:44;3.42;;;1.40;;
37067;SDS011;22982;42.848;25.468;2022-09-20T14:45:53;0.70;;;0.70;;
37067;SDS011;22982;42.848;25.468;2022-09-20T14:51:17;2.08;;;0.88;;
37067;SDS011;22982;42.848;25.468;2022-09-20T14:56:31;3.63;;;1.60;;
37067;SDS011;22982;42.848;25.468;2022-09-20T15:01:35;5.43;;;1.73;;
37067;SDS011;22982;42.848;25.468;2022-09-20T15:06:41;0.93;;;0.80;;
37067;SDS011;22982;42.848;25.468;2022-09-20T15:11:44;1.30;;;1.13;;
37067;SDS011;22982;42.848;25.468;2022-09-20T15:16:49;1.13;;;0.80;;
37067;SDS011;22982;42.848;25.468;2022-09-20T15:21:51;0.80;;;0.73;;
37067;SDS011;22982;42.848;25.468;2022-09-20T15:26:54;2.05;;;1.00;;
37067;SDS011;22982;42.848;25.468;2022-09-20T15:31:57;0.93;;;0.80;;
37067;SDS011;22982;42.848;25.468;2022-09-20T15:36:59;0.80;;;0.70;;
37067;SDS011;22982;42.848;25.468;2022-09-20T15:42:01;1.20;;;1.02;;
37067;SDS011;22982;42.848;25.468;2022-09-20T15:47:03;2.17;;;1.10;;
37067;SDS011;22982;42.848;25.468;2022-09-20T15:52:06;5.03;;;1.30;;
37067;SDS011;22982;42.848;25.468;2022-09-20T15:57:08;5.32;;;1.70;;
37067;SDS011;22982;42.848;25.468;2022-09-20T16:02:10;5.20;;;1.52;;
37067;SDS011;22982;42.848;25.468;2022-09-20T16:07:13;1.77;;;1.30;;
37067;SDS011;22982;42.848;25.468;2022-09-20T16:12:16;3.72;;;1.77;;
37067;SDS011;22982;42.848;25.468;2022-09-20T16:17:19;3.35;;;1.48;;
37067;SDS011;22982;42.848;25.468;2022-09-20T16:22:41;9.18;;;3.80;;
37067;SDS011;22982;42.848;25.468;2022-09-20T16:27:44;9.40;;;4.45;;
37067;SDS011;22982;42.848;25.468;2022-09-20T16:33:05;5.70;;;3.33;;
37067;SDS011;22982;42.848;25.468;2022-09-20T16:38:07;5.60;;;3.90;;
37067;SDS011;22982;42.848;25.468;2022-09-20T16:43:11;11.32;;;5.80;;
37067;SDS011;22982;42.848;25.468;2022-09-20T16:48:13;32.42;;;22.05;;
37067;SDS011;22982;42.848;25.468;2022-09-20T16:53:15;24.05;;;16.88;;
37067;SDS011;22982;42.848;25.468;2022-09-20T16:58:17;22.00;;;13.00;;
37067;SDS011;22982;42.848;25.468;2022-09-20T17:03:20;23.67;;;13.02;;
37067;SDS011;22982;42.848;25.468;2022-09-20T17:08:27;15.63;;;8.55;;
37067;SDS011;22982;42.848;25.468;2022-09-20T17:13:30;19.45;;;11.32;;
37067;SDS011;22982;42.848;25.468;2022-09-20T17:18:35;13.23;;;9.18;;
37067;SDS011;22982;42.848;25.468;2022-09-20T17:23:43;5.03;;;3.33;;
37067;SDS011;22982;42.848;25.468;2022-09-20T17:28:52;5.80;;;4.10;;
37067;SDS011;22982;42.848;25.468;2022-09-20T17:33:59;6.10;;;4.18;;
37067;SDS011;22982;42.848;25.468;2022-09-20T17:39:03;3.90;;;3.10;;
37067;SDS011;22982;42.848;25.468;2022-09-20T17:44:05;4.03;;;3.08;;
37067;SDS011;22982;42.848;25.468;2022-09-20T17:49:11;4.93;;;3.28;;
37067;SDS011;22982;42.848;25.468;2022-09-20T17:54:18;6.75;;;3.60;;
37067;SDS011;22982;42.848;25.468;2022-09-20T17:59:21;4.30;;;3.58;;
37067;SDS011;22982;42.848;25.468;2022-09-20T18:04:24;6.93;;;4.75;;
37067;SDS011;22982;42.848;25.468;2022-09-20T18:09:26;5.05;;;2.70;;
37067;SDS011;22982;42.848;25.468;2022-09-20T18:14:28;7.80;;;3.50;;
37067;SDS011;22982;42.848;25.468;2022-09-20T18:19:32;9.73;;;7.43;;
37067;SDS011;22982;42.848;25.468;2022-09-20T18:24:35;11.25;;;5.85;;
37067;SDS011;22982;42.848;25.468;2022-09-20T18:29:37;6.25;;;3.50;;
37067;SDS011;22982;42.848;25.468;2022-09-20T18:34:39;4.25;;;3.17;;
37067;SDS011;22982;42.848;25.468;2022-09-20T18:39:42;5.20;;;3.55;;
37067;SDS011;22982;42.848;25.468;2022-09-20T18:44:44;5.70;;;3.90;;
37067;SDS011;22982;42.848;25.468;2022-09-20T18:49:46;7.55;;;4.43;;
37067;SDS011;22982;42.848;25.468;2022-09-20T18:54:48;3.97;;;3.05;;
37067;SDS011;22982;42.848;25.468;2022-09-20T18:59:51;6.18;;;3.58;;
37067;SDS011;22982;42.848;25.468;2022-09-20T19:10:23;6.70;;;4.20;;
37067;SDS011;22982;42.848;25.468;2022-09-20T19:21:14;9.38;;;3.70;;
37067;SDS011;22982;42.848;25.468;2022-09-20T19:26:43;6.82;;;3.80;;
37067;SDS011;22982;42.848;25.468;2022-09-20T19:31:47;3.05;;;2.45;;
37067;SDS011;22982;42.848;25.468;2022-09-20T19:42:32;3.72;;;3.03;;
37067;SDS011;22982;42.848;25.468;2022-09-20T19:47:57;3.08;;;2.53;;
37067;SDS011;22982;42.848;25.468;2022-09-20T19:53:22;3.70;;;2.80;;
37067;SDS011;22982;42.848;25.468;2022-09-20T19:58:27;7.43;;;3.58;;
37067;SDS011;22982;42.848;25.468;2022-09-20T20:03:30;3.72;;;2.60;;
37067;SDS011;22982;42.848;25.468;2022-09-20T20:08:34;2.80;;;2.50;;
37067;SDS011;22982;42.848;25.468;2022-09-20T20:13:45;3.35;;;2.75;;
37067;SDS011;22982;42.848;25.468;2022-09-20T20:19:15;3.33;;;2.70;;
37067;SDS011;22982;42.848;25.468;2022-09-20T20:29:40;2.80;;;2.47;;
37067;SDS011;22982;42.848;25.468;2022-09-20T20:34:42;2.58;;;2.35;;
37067;SDS011;22982;42.848;25.468;2022-09-20T20:39:45;2.33;;;2.13;;
37067;SDS011;22982;42.848;25.468;2022-09-20T20:44:47;3.20;;;2.70;;
37067;SDS011;22982;42.848;25.468;2022-09-20T20:49:50;3.90;;;2.50;;
37067;SDS011;22982;42.848;25.468;2022-09-20T20:54:54;6.35;;;3.22;;
37067;SDS011;22982;42.848;25.468;2022-09-20T20:59:58;5.45;;;2.90;;
37067;SDS011;22982;42.848;25.468;2022-09-20T21:05:01;4.43;;;2.85;;
37067;SDS011;22982;42.848;25.468;2022-09-20T21:10:03;3.35;;;3.05;;
37067;SDS011;22982;42.848;25.468;2022-09-20T21:15:06;4.88;;;2.80;;
37067;SDS011;22982;42.848;25.468;2022-09-20T21:20:08;5.18;;;3.30;;
37067;SDS011;22982;42.848;25.468;2022-09-20T21:25:10;4.53;;;3.03;;
37067;SDS011;22982;42.848;25.468;2022-09-20T21:30:13;3.92;;;2.58;;
37067;SDS011;22982;42.848;25.468;2022-09-20T21:35:15;3.15;;;2.85;;
37067;SDS011;22982;42.848;25.468;2022-09-20T21:40:17;3.03;;;2.40;;
37067;SDS011;22982;42.848;25.468;2022-09-20T21:45:20;2.90;;;2.60;;
37067;SDS011;22982;42.848;25.468;2022-09-20T21:50:27;3.88;;;2.80;;
37067;SDS011;22982;42.848;25.468;2022-09-20T21:55:30;8.20;;;2.47;;
37067;SDS011;22982;42.848;25.468;2022-09-20T22:00:32;4.07;;;2.67;;
37067;SDS011;22982;42.848;25.468;2022-09-20T22:05:36;3.50;;;2.78;;
37067;SDS011;22982;42.848;25.468;2022-09-20T22:10:38;5.22;;;3.00;;
37067;SDS011;22982;42.848;25.468;2022-09-20T22:15:40;4.07;;;2.60;;
37067;SDS011;22982;42.848;25.468;2022-09-20T22:20:43;3.95;;;2.70;;
37067;SDS011;22982;42.848;25.468;2022-09-20T22:25:46;4.18;;;3.17;;
37067;SDS011;22982;42.848;25.468;2022-09-20T22:30:48;2.72;;;2.30;;
37067;SDS011;22982;42.848;25.468;2022-09-20T22:35:50;2.80;;;2.50;;
37067;SDS011;22982;42.848;25.468;2022-09-20T22:40:56;4.35;;;2.72;;
37067;SDS011;22982;42.848;25.468;2022-09-20T22:46:01;3.50;;;2.50;;
37067;SDS011;22982;42.848;25.468;2022-09-20T22:51:06;3.97;;;2.50;;
37067;SDS011;22982;42.848;25.468;2022-09-20T22:56:13;4.00;;;2.55;;
37067;SDS011;22982;42.848;25.468;2022-09-20T23:01:19;3.50;;;2.53;;
37067;SDS011;22982;42.848;25.468;2022-09-20T23:06:23;2.65;;;2.45;;
37067;SDS011;22982;42.848;25.468;2022-09-20T23:11:27;2.35;;;2.13;;
37067;SDS011;22982;42.848;25.468;2022-09-20T23:16:34;2.75;;;2.53;;
37067;SDS011;22982;42.848;25.468;2022-09-20T23:21:38;3.25;;;2.75;;
37067;SDS011;22982;42.848;25.468;2022-09-20T23:26:41;2.58;;;2.38;;
37067;SDS011;22982;42.848;25.468;2022-09-20T23:31:45;3.58;;;2.47;;
37067;SDS011;22982;42.848;25.468;2022-09-20T23:36:48;4.55;;;3.05;;
37067;SDS011;22982;42.848;25.468;2022-09-20T23:41:50;2.70;;;2.50;;
37067;SDS011;22982;42.848;25.468;2022-09-20T23:46:52;2.63;;;2.42;;
37067;SDS011;22982;42.848;25.468;2022-09-20T23:51:55;3.15;;;2.85;;
37067;SDS011;22982;42.848;25.468;2022-09-20T23:56:57;5.00;;;2.63;;
